createdAt,value
2019-04-13T00:00:22.920Z,3.60
2019-04-13T00:06:43.235Z,3.60
2019-04-13T00:09:44.573Z,3.70
2019-04-13T00:12:46.127Z,3.50
2019-04-13T00:15:46.713Z,3.60
2019-04-13T00:19:07.040Z,3.60
2019-04-13T00:21:54.578Z,3.60
2019-04-13T00:24:42.194Z,3.60
2019-04-13T00:27:30.544Z,3.60
2019-04-13T00:30:19.123Z,3.50
2019-04-13T00:33:07.377Z,3.60
2019-04-13T00:35:55.018Z,3.60
2019-04-13T00:38:43.374Z,3.60
2019-04-13T00:41:31.370Z,3.60
2019-04-13T00:44:20.206Z,3.70
2019-04-13T00:47:08.747Z,3.70
2019-04-13T00:49:56.886Z,3.70
2019-04-13T00:52:45.270Z,3.60
2019-04-13T00:55:33.468Z,3.50
2019-04-13T00:58:21.515Z,3.50
2019-04-13T01:01:10.087Z,3.50
2019-04-13T01:03:58.476Z,3.50
2019-04-13T01:06:46.647Z,3.50
2019-04-13T01:09:34.892Z,3.60
2019-04-13T01:12:22.844Z,3.60
2019-04-13T01:15:11.402Z,3.50
2019-04-13T01:17:59.146Z,3.40
2019-04-13T01:20:47.199Z,3.30
2019-04-13T01:23:35.147Z,3.20
2019-04-13T01:26:22.882Z,3.20
2019-04-13T01:29:10.394Z,3.10
2019-04-13T01:31:58.196Z,3.00
2019-04-13T01:34:45.996Z,3.00
2019-04-13T01:37:33.911Z,2.90
2019-04-13T01:40:22.275Z,2.90
2019-04-13T01:43:09.840Z,2.90
2019-04-13T01:45:58.636Z,2.90
2019-04-13T01:48:47.018Z,2.90
2019-04-13T01:51:34.478Z,2.80
2019-04-13T01:54:22.763Z,2.80
2019-04-13T01:57:10.871Z,2.80
2019-04-13T01:59:59.008Z,2.80
2019-04-13T02:02:51.689Z,2.80
2019-04-13T02:05:54.544Z,2.80
2019-04-13T02:09:01.837Z,2.70
2019-04-13T02:11:49.550Z,2.70
2019-04-13T02:14:37.770Z,2.60
2019-04-13T02:17:25.980Z,2.70
2019-04-13T02:20:14.455Z,2.70
2019-04-13T02:23:02.459Z,2.70
2019-04-13T02:25:50.777Z,2.70
2019-04-13T02:28:38.264Z,2.70
2019-04-13T02:31:26.484Z,2.70
2019-04-13T02:34:14.386Z,2.60
2019-04-13T02:37:02.369Z,2.70
2019-04-13T02:39:50.401Z,2.70
2019-04-13T02:42:38.885Z,2.70
2019-04-13T02:45:27.188Z,2.60
2019-04-13T02:48:15.317Z,2.60
2019-04-13T02:51:03.780Z,2.70
2019-04-13T02:53:51.317Z,2.60
2019-04-13T02:56:39.746Z,2.60
2019-04-13T02:59:28.043Z,2.70
2019-04-13T03:02:16.340Z,2.60
2019-04-13T03:05:04.804Z,2.50
2019-04-13T03:07:52.277Z,2.50
2019-04-13T03:10:40.663Z,2.50
2019-04-13T03:13:29.386Z,2.50
2019-04-13T03:16:35.773Z,2.50
2019-04-13T03:19:26.969Z,2.40
2019-04-13T03:22:14.916Z,2.40
2019-04-13T03:25:03.063Z,2.40
2019-04-13T03:27:51.148Z,2.50
2019-04-13T03:30:39.957Z,2.50
2019-04-13T03:33:27.711Z,2.40
2019-04-13T03:36:16.373Z,2.40
2019-04-13T03:39:07.641Z,2.40
2019-04-13T03:41:55.798Z,2.40
2019-04-13T03:44:43.664Z,2.50
2019-04-13T03:47:31.811Z,2.60
2019-04-13T03:50:19.785Z,2.60
2019-04-13T03:53:08.284Z,2.70
2019-04-13T03:55:55.812Z,2.70
2019-04-13T03:58:43.488Z,2.70
2019-04-13T04:01:31.491Z,2.70
2019-04-13T04:04:19.054Z,2.50
2019-04-13T04:07:07.024Z,2.60
2019-04-13T04:09:54.946Z,2.60
2019-04-13T04:12:43.139Z,2.60
2019-04-13T04:15:31.692Z,2.60
2019-04-13T04:18:19.891Z,2.60
2019-04-13T04:21:07.822Z,2.60
2019-04-13T04:23:56.079Z,2.60
2019-04-13T04:26:43.752Z,2.60
2019-04-13T04:29:31.339Z,2.40
2019-04-13T04:32:19.846Z,2.40
2019-04-13T04:35:07.483Z,2.40
2019-04-13T04:37:55.006Z,2.40
2019-04-13T04:40:43.287Z,2.40
2019-04-13T04:43:31.170Z,2.50
2019-04-13T04:46:19.422Z,2.40
2019-04-13T04:49:07.614Z,2.40
2019-04-13T04:51:55.923Z,2.50
2019-04-13T04:54:44.147Z,2.30
2019-04-13T04:57:32.671Z,2.40
2019-04-13T05:00:20.903Z,2.40
2019-04-13T05:03:09.098Z,2.40
2019-04-13T05:05:57.684Z,2.40
2019-04-13T05:08:45.918Z,2.30
2019-04-13T05:11:34.363Z,2.30
2019-04-13T05:14:22.383Z,2.20
2019-04-13T05:17:10.635Z,2.20
2019-04-13T05:19:58.063Z,2.30
2019-04-13T05:22:45.671Z,2.40
2019-04-13T05:25:34.091Z,2.50
2019-04-13T05:28:22.616Z,2.40
2019-04-13T05:31:10.951Z,2.30
2019-04-13T05:33:58.739Z,2.40
2019-04-13T05:36:47.806Z,2.50
2019-04-13T05:39:36.591Z,2.60
2019-04-13T05:42:24.868Z,2.70
2019-04-13T05:45:13.439Z,2.50
2019-04-13T05:48:01.619Z,2.60
2019-04-13T05:50:49.995Z,2.40
2019-04-13T05:53:38.486Z,2.70
2019-04-13T05:56:26.757Z,2.80
2019-04-13T05:59:15.222Z,2.80
2019-04-13T06:02:02.975Z,2.80
2019-04-13T06:04:51.537Z,2.80
2019-04-13T06:07:39.870Z,2.90
2019-04-13T06:10:28.214Z,3.00
2019-04-13T06:13:16.378Z,3.10
2019-04-13T06:16:08.767Z,3.20
2019-04-13T06:18:54.301Z,3.40
2019-04-13T06:21:44.781Z,3.50
2019-04-13T06:24:32.353Z,3.90
2019-04-13T06:27:20.820Z,4.30
2019-04-13T06:30:28.179Z,4.60
2019-04-13T06:33:32.628Z,4.40
2019-04-13T06:36:20.506Z,4.80
2019-04-13T06:39:11.395Z,4.90
2019-04-13T06:41:59.239Z,5.20
2019-04-13T06:44:47.494Z,4.90
2019-04-13T06:47:35.661Z,5.20
2019-04-13T06:50:23.890Z,5.10
2019-04-13T06:53:12.158Z,5.20
2019-04-13T06:56:02.896Z,4.90
2019-04-13T06:58:51.784Z,4.40
2019-04-13T07:01:40.389Z,4.50
2019-04-13T07:04:29.105Z,4.40
2019-04-13T07:07:45.938Z,4.30
2019-04-13T07:10:57.222Z,4.20
2019-04-13T07:13:50.995Z,4.30
2019-04-13T07:16:47.434Z,4.50
2019-04-13T07:19:35.487Z,4.70
2019-04-13T07:22:23.848Z,5.00
2019-04-13T07:25:11.828Z,5.20
2019-04-13T07:28:01.891Z,5.20
2019-04-13T07:30:49.252Z,4.90
2019-04-13T07:33:36.943Z,5.20
2019-04-13T07:36:24.972Z,5.20
2019-04-13T07:39:17.263Z,5.30
2019-04-13T07:42:04.934Z,5.30
2019-04-13T07:44:57.365Z,5.20
2019-04-13T07:47:57.743Z,5.10
2019-04-13T07:51:07.801Z,4.80
2019-04-13T07:53:56.382Z,4.90
2019-04-13T07:56:44.615Z,5.00
2019-04-13T07:59:32.671Z,5.00
2019-04-13T08:02:20.687Z,4.90
2019-04-13T08:05:09.020Z,5.10
2019-04-13T08:07:57.279Z,5.50
2019-04-13T08:10:45.223Z,5.60
2019-04-13T08:13:33.493Z,5.40
2019-04-13T08:16:24.839Z,5.40
2019-04-13T08:19:14.656Z,5.20
2019-04-13T08:22:04.770Z,5.30
2019-04-13T08:24:52.595Z,6.40
2019-04-13T08:27:40.095Z,6.90
2019-04-13T08:30:30.380Z,7.10
2019-04-13T08:33:18.372Z,6.70
2019-04-13T08:36:06.692Z,6.40
2019-04-13T08:38:58.964Z,6.80
2019-04-13T08:41:44.485Z,6.50
2019-04-13T08:44:36.392Z,6.20
2019-04-13T08:47:22.583Z,5.90
2019-04-13T08:50:11.091Z,6.10
2019-04-13T08:52:58.696Z,6.20
2019-04-13T08:55:46.573Z,6.40
2019-04-13T08:58:35.175Z,6.60
2019-04-13T09:01:23.051Z,6.70
2019-04-13T09:04:11.279Z,6.70
2019-04-13T09:06:59.451Z,6.30
2019-04-13T09:09:50.277Z,5.90
2019-04-13T09:12:37.079Z,6.00
2019-04-13T09:15:25.435Z,6.20
2019-04-13T09:18:38.387Z,6.30
2019-04-13T09:21:38.278Z,7.40
2019-04-13T09:24:26.676Z,8.20
2019-04-13T09:27:14.932Z,8.50
2019-04-13T09:30:03.831Z,8.40
2019-04-13T09:32:52.427Z,8.30
2019-04-13T09:35:40.308Z,8.50
2019-04-13T09:38:28.253Z,8.40
2019-04-13T09:41:16.679Z,9.10
2019-04-13T09:44:20.722Z,9.00
2019-04-13T09:47:20.292Z,9.20
2019-04-13T09:50:09.087Z,9.30
2019-04-13T09:52:56.890Z,10.10
2019-04-13T09:55:49.690Z,10.00
2019-04-13T09:58:35.239Z,9.90
2019-04-13T10:01:24.191Z,9.20
2019-04-13T10:04:12.941Z,9.10
2019-04-13T10:07:01.954Z,9.90
2019-04-13T10:09:50.342Z,10.70
2019-04-13T10:12:49.099Z,11.50
2019-04-13T10:15:57.475Z,10.80
2019-04-13T10:18:50.060Z,10.10
2019-04-13T10:21:38.062Z,10.00
2019-04-13T10:24:38.500Z,10.30
2019-04-13T10:27:26.483Z,11.00
2019-04-13T10:30:14.870Z,11.60
2019-04-13T10:33:03.247Z,11.20
2019-04-13T10:35:50.744Z,11.50
2019-04-13T10:38:39.270Z,11.20
2019-04-13T10:41:27.427Z,10.30
2019-04-13T10:44:16.288Z,9.00
2019-04-13T10:47:38.792Z,8.40
2019-04-13T10:50:34.121Z,8.10
2019-04-13T10:53:22.375Z,8.30
2019-04-13T10:56:10.387Z,8.50
2019-04-13T10:58:58.375Z,9.70
2019-04-13T11:01:46.130Z,11.70
2019-04-13T11:04:34.571Z,11.30
2019-04-13T11:07:22.819Z,9.90
2019-04-13T11:10:10.906Z,8.90
2019-04-13T11:12:58.845Z,8.00
2019-04-13T11:15:47.023Z,8.30
2019-04-13T11:18:36.976Z,8.50
2019-04-13T11:21:24.682Z,8.60
2019-04-13T11:24:13.360Z,8.60
2019-04-13T11:27:01.587Z,8.80
2019-04-13T11:29:50.027Z,8.60
2019-04-13T11:32:38.060Z,9.60
2019-04-13T11:35:26.518Z,12.00
2019-04-13T11:38:18.461Z,12.90
2019-04-13T11:41:10.703Z,12.80
2019-04-13T11:44:17.470Z,13.70
2019-04-13T11:47:22.350Z,13.70
2019-04-13T11:50:14.052Z,15.00
2019-04-13T11:53:02.135Z,15.80
2019-04-13T11:55:50.516Z,18.10
2019-04-13T11:58:38.379Z,17.00
2019-04-13T12:01:50.262Z,13.70
2019-04-13T12:05:00.070Z,12.30
2019-04-13T12:07:56.204Z,11.30
2019-04-13T12:11:01.700Z,10.50
2019-04-13T12:14:04.402Z,9.40
2019-04-13T12:17:02.112Z,8.70
2019-04-13T12:19:54.494Z,8.30
2019-04-13T12:22:42.737Z,7.60
2019-04-13T12:25:30.667Z,7.20
2019-04-13T12:28:18.500Z,6.70
2019-04-13T12:31:07.148Z,6.70
2019-04-13T12:33:56.043Z,6.60
2019-04-13T12:36:44.134Z,6.60
2019-04-13T12:39:31.835Z,6.80
2019-04-13T12:42:19.992Z,7.50
2019-04-13T12:45:07.851Z,9.10
2019-04-13T12:47:56.356Z,11.40
2019-04-13T12:50:44.144Z,13.70
2019-04-13T12:53:32.539Z,15.60
2019-04-13T12:56:20.480Z,17.00
2019-04-13T12:59:08.700Z,17.20
2019-04-13T13:02:15.958Z,17.90
2019-04-13T13:05:32.476Z,17.80
2019-04-13T13:08:20.386Z,17.40
2019-04-13T13:11:12.168Z,17.40
2019-04-13T13:13:57.479Z,18.50
2019-04-13T13:16:46.606Z,18.60
2019-04-13T13:19:35.140Z,19.50
2019-04-13T13:22:22.715Z,18.00
2019-04-13T13:25:13.815Z,15.60
2019-04-13T13:28:01.419Z,14.50
2019-04-13T13:30:51.038Z,13.40
2019-04-13T13:33:40.253Z,11.50
2019-04-13T13:36:28.912Z,9.20
2019-04-13T13:39:17.007Z,8.00
2019-04-13T13:42:05.581Z,7.10
2019-04-13T13:44:53.822Z,6.30
2019-04-13T13:47:42.911Z,5.40
2019-04-13T13:50:31.095Z,4.90
2019-04-13T13:53:19.273Z,4.50
2019-04-13T13:56:08.639Z,4.40
2019-04-13T13:59:01.171Z,4.40
2019-04-13T14:01:55.996Z,4.70
2019-04-13T14:04:44.553Z,5.10
2019-04-13T14:07:33.370Z,5.60
2019-04-13T14:10:21.417Z,5.90
2019-04-13T14:13:09.807Z,6.10
2019-04-13T14:15:58.109Z,6.30
2019-04-13T14:18:46.227Z,6.80
2019-04-13T14:21:38.215Z,8.50
2019-04-13T14:24:23.723Z,9.70
2019-04-13T14:27:12.315Z,9.60
2019-04-13T14:30:00.452Z,9.30
2019-04-13T14:32:47.983Z,8.60
2019-04-13T14:35:36.690Z,7.80
2019-04-13T14:38:25.020Z,7.00
2019-04-13T14:41:13.808Z,5.90
2019-04-13T14:44:01.437Z,5.40
2019-04-13T14:46:49.013Z,5.30
2019-04-13T14:49:36.584Z,5.20
2019-04-13T14:52:26.624Z,5.30
2019-04-13T14:55:14.591Z,5.20
2019-04-13T14:58:03.368Z,5.20
2019-04-13T15:00:51.725Z,5.20
2019-04-13T15:03:40.144Z,5.00
2019-04-13T15:06:28.667Z,4.80
2019-04-13T15:09:18.062Z,4.60
2019-04-13T15:12:11.524Z,4.10
2019-04-13T15:14:56.420Z,4.00
2019-04-13T15:17:53.761Z,4.30
2019-04-13T15:20:45.973Z,4.30
2019-04-13T15:23:34.881Z,4.30
2019-04-13T15:26:21.423Z,4.40
2019-04-13T15:29:11.050Z,4.50
2019-04-13T15:31:59.653Z,4.60
2019-04-13T15:34:47.555Z,5.60
2019-04-13T15:37:41.886Z,6.70
2019-04-13T15:40:29.563Z,7.60
2019-04-13T15:43:23.166Z,8.20
2019-04-13T15:46:05.061Z,8.30
2019-04-13T15:48:54.052Z,8.30
2019-04-13T15:51:44.502Z,8.60
2019-04-13T15:54:32.929Z,7.90
2019-04-13T15:57:22.064Z,7.50
2019-04-13T16:00:11.127Z,7.10
2019-04-13T16:03:00.538Z,6.90
2019-04-13T16:05:49.666Z,7.50
2019-04-13T16:08:53.471Z,7.50
2019-04-13T16:11:52.562Z,7.10
2019-04-13T16:14:33.105Z,7.00
2019-04-13T16:17:21.463Z,7.20
2019-04-13T16:20:09.986Z,7.10
2019-04-13T16:22:58.836Z,7.20
2019-04-13T16:25:46.946Z,7.00
2019-04-13T16:28:41.541Z,6.80
2019-04-13T16:31:37.671Z,6.60
2019-04-13T16:34:48.746Z,6.60
2019-04-13T16:37:50.532Z,6.70
2019-04-13T16:40:39.406Z,6.40
2019-04-13T16:43:33.102Z,6.40
2019-04-13T16:46:34.667Z,6.30
2019-04-13T16:49:48.694Z,6.20
2019-04-13T16:52:55.899Z,6.40
2019-04-13T16:55:47.380Z,6.60
2019-04-13T16:58:49.385Z,6.80
2019-04-13T17:01:45.945Z,6.60
2019-04-13T17:04:38.342Z,6.40
2019-04-13T17:07:26.768Z,6.30
2019-04-13T17:10:15.083Z,6.30
2019-04-13T17:13:03.827Z,6.20
2019-04-13T17:15:52.423Z,5.80
2019-04-13T17:18:46.479Z,5.80
2019-04-13T17:21:56.593Z,5.70
2019-04-13T17:25:12.300Z,5.80
2019-04-13T17:28:21.692Z,5.70
2019-04-13T17:31:37.120Z,5.50
2019-04-13T17:34:42.072Z,5.30
2019-04-13T17:37:30.039Z,5.00
2019-04-13T17:40:23.963Z,5.00
2019-04-13T17:43:29.907Z,4.90
2019-04-13T17:46:36.994Z,4.80
2019-04-13T17:49:43.055Z,4.90
2019-04-13T17:52:50.594Z,4.90
2019-04-13T17:55:55.706Z,4.80
2019-04-13T17:59:09.535Z,4.70
2019-04-13T18:02:15.671Z,4.70
2019-04-13T18:05:22.855Z,4.70
2019-04-13T18:08:42.419Z,4.60
2019-04-13T18:11:49.103Z,4.50
2019-04-13T18:15:03.269Z,4.60
2019-04-13T18:18:05.939Z,4.70
2019-04-13T18:20:55.026Z,4.70
2019-04-13T18:23:44.047Z,4.70
2019-04-13T18:26:33.629Z,4.60
2019-04-13T18:29:22.113Z,4.40
2019-04-13T18:32:11.082Z,4.30
2019-04-13T18:35:00.326Z,3.90
2019-04-13T18:37:49.569Z,3.70
2019-04-13T18:40:38.636Z,3.60
2019-04-13T18:43:29.654Z,3.50
2019-04-13T18:46:19.094Z,3.50
2019-04-13T18:49:07.518Z,3.50
2019-04-13T18:51:56.597Z,3.60
2019-04-13T18:54:45.153Z,3.60
2019-04-13T18:57:33.913Z,3.50
2019-04-13T19:00:21.661Z,3.50
2019-04-13T19:03:10.684Z,3.60
2019-04-13T19:05:59.282Z,3.60
2019-04-13T19:08:46.831Z,3.60
2019-04-13T19:11:35.284Z,3.40
2019-04-13T19:14:23.688Z,3.30
2019-04-13T19:17:12.762Z,3.20
2019-04-13T19:20:00.845Z,3.20
2019-04-13T19:22:48.827Z,3.20
2019-04-13T19:25:37.512Z,3.30
2019-04-13T19:28:26.135Z,3.20
2019-04-13T19:31:14.570Z,3.20
2019-04-13T19:34:02.592Z,3.20
2019-04-13T19:36:50.122Z,3.30
2019-04-13T19:39:38.504Z,3.40
2019-04-13T19:42:27.295Z,3.40
2019-04-13T19:45:15.591Z,3.30
2019-04-13T19:48:04.580Z,3.40
2019-04-13T19:50:52.871Z,3.50
2019-04-13T19:53:49.476Z,3.60
2019-04-13T19:56:37.295Z,3.60
2019-04-13T19:59:25.984Z,3.60
2019-04-13T20:02:15.702Z,3.50
2019-04-13T20:05:04.485Z,3.40
2019-04-13T20:07:52.711Z,3.40
2019-04-13T20:10:40.800Z,3.30
2019-04-13T20:13:40.741Z,3.20
2019-04-13T20:16:18.947Z,3.20
2019-04-13T20:19:07.101Z,3.10
2019-04-13T20:21:55.616Z,3.10
2019-04-13T20:24:43.839Z,3.00
2019-04-13T20:27:32.559Z,3.10
2019-04-13T20:30:21.582Z,3.10
2019-04-13T20:33:11.006Z,3.10
2019-04-13T20:36:05.206Z,3.20
2019-04-13T20:38:48.113Z,3.20
2019-04-13T20:41:45.667Z,3.20
2019-04-13T20:44:26.114Z,3.30
2019-04-13T20:47:14.068Z,3.30
2019-04-13T20:50:01.621Z,3.30
2019-04-13T20:52:49.895Z,3.40
2019-04-13T20:55:37.583Z,3.40
2019-04-13T20:58:26.859Z,3.40
2019-04-13T21:01:15.211Z,3.50
2019-04-13T21:04:04.404Z,3.50
2019-04-13T21:06:52.496Z,3.60
2019-04-13T21:09:40.295Z,3.50
2019-04-13T21:12:28.792Z,3.60
2019-04-13T21:15:16.355Z,3.60
2019-04-13T21:18:05.667Z,3.40
2019-04-13T21:20:55.359Z,3.40
2019-04-13T21:23:45.207Z,3.30
2019-04-13T21:26:34.867Z,3.50
2019-04-13T21:29:24.217Z,3.50
2019-04-13T21:32:12.296Z,3.60
2019-04-13T21:35:01.481Z,3.60
2019-04-13T21:37:50.879Z,3.70
2019-04-13T21:40:40.420Z,3.60
2019-04-13T21:43:32.590Z,3.60
2019-04-13T21:46:19.542Z,3.60
2019-04-13T21:49:07.987Z,3.50
2019-04-13T21:52:10.542Z,3.40
2019-04-13T21:55:00.368Z,3.30
2019-04-13T21:57:48.703Z,3.50
2019-04-13T22:01:13.241Z,3.60
2019-04-13T22:04:00.859Z,3.50
2019-04-13T22:06:49.732Z,3.40
2019-04-13T22:09:37.384Z,3.40
2019-04-13T22:12:26.386Z,3.40
2019-04-13T22:15:16.008Z,3.50
2019-04-13T22:18:04.144Z,3.40
2019-04-13T22:20:52.098Z,3.40
2019-04-13T22:23:41.029Z,3.40
2019-04-13T22:26:30.481Z,3.40
2019-04-13T22:29:26.883Z,3.40
2019-04-13T22:32:23.219Z,3.50
2019-04-13T22:35:26.187Z,3.60
2019-04-13T22:38:15.351Z,3.60
2019-04-13T22:41:04.919Z,3.60
2019-04-13T22:43:54.365Z,3.50
2019-04-13T22:46:43.491Z,3.60
2019-04-13T22:49:36.567Z,3.70
2019-04-13T22:52:47.457Z,3.80
2019-04-13T22:55:44.836Z,3.90
2019-04-13T22:58:33.393Z,3.80
2019-04-13T23:01:26.598Z,3.80
2019-04-13T23:04:14.975Z,3.80
2019-04-13T23:07:02.548Z,3.80
2019-04-13T23:09:51.960Z,3.80
2019-04-13T23:12:39.990Z,3.60
2019-04-13T23:15:33.061Z,3.60
2019-04-13T23:18:18.726Z,3.60
2019-04-13T23:21:07.271Z,3.60
2019-04-13T23:23:55.134Z,3.70
2019-04-13T23:26:43.006Z,3.70
2019-04-13T23:29:32.348Z,3.70
2019-04-13T23:32:21.006Z,3.70
2019-04-13T23:35:10.514Z,3.80
2019-04-13T23:37:58.613Z,3.70
2019-04-13T23:40:46.767Z,3.70
2019-04-13T23:43:34.325Z,3.70
2019-04-13T23:46:23.957Z,3.80
2019-04-13T23:49:12.556Z,3.80
2019-04-13T23:52:00.501Z,3.80
2019-04-13T23:54:52.419Z,3.90
2019-04-13T23:58:00.203Z,3.90
